Time;durP1;ratioP1;P1;durP2;ratioP2;P2;SDS_P1;SDS_P2;PMS_P1;PMS_P2;Temp;Humidity;BMP_temperature;BMP_pressure;BME280_temperature;BME280_humidity;BME280_pressure;Samples;Min_cycle;Max_cycle;Signal;HPM_P1;HPM_P2
2022/02/01 00:00:13;;;;;;;;;;;;;;;-144.99;100.00;52631.53;5070166;28;20329;-59
2022/02/01 00:02:45;;;;;;;;;;;;;;;-144.99;100.00;52611.16;5070373;28;20450;-60
2022/02/01 00:05:17;;;;;;;;;;;;;;;-144.99;100.00;52635.63;5069647;28;19924;-60
2022/02/01 00:07:52;;;;;;;;;;;;;;;-144.99;100.00;52619.31;5070465;28;19928;-60
2022/02/01 00:10:33;;;;;;;;;;;;;;;-144.99;100.00;52623.38;5070385;28;20294;-58
2022/02/01 00:13:08;;;;;;;;;;;;;;;-144.99;100.00;52639.69;5070262;28;19924;-59
2022/02/01 00:18:38;;;;;;;;;;;;;;;-144.99;100.00;52570.38;5058815;28;20366;-60
2022/02/01 00:37:54;;;;;;;;;;;;;;;-144.99;100.00;52611.16;5021633;28;19929;-59
2022/02/01 00:40:20;;;;;;;;;;;;;;;-144.99;100.00;52643.78;5056310;28;19924;-60
2022/02/01 00:42:48;;;;;;;;;;;;;;;-144.99;100.00;52627.47;5069746;28;20420;-59
2022/02/01 00:45:14;;;;;;;;;;;;;;;-144.99;100.00;52605.03;5069071;28;20375;-58
2022/02/01 00:47:42;;;;;;;;;;;;;;;-144.99;100.00;52554.09;5069424;28;19936;-59
2022/02/01 00:50:11;;;;;;;;;;;;;;;-144.99;100.00;52631.53;5069265;28;19925;-59
2022/02/01 00:52:38;;;;;;;;;;;;;;;-144.99;100.00;52600.97;5069722;28;19924;-59
2022/02/01 00:55:05;;;;;;;;;;;;;;;-144.99;100.00;52611.16;5069624;28;19959;-59
2022/02/01 00:57:34;;;;;;;;;;;;;;;-144.99;100.00;52615.25;5069055;28;19924;-59
2022/02/01 01:00:02;;;;;;;;;;;;;;;-144.99;100.00;52582.63;5069542;28;20031;-60
2022/02/01 01:02:28;;;;;;;;;;;;;;;-144.99;100.00;52647.84;5069057;28;19930;-59
2022/02/01 01:04:55;;;;;;;;;;;;;;;-144.99;100.00;52572.44;5069023;28;20019;-59
2022/02/01 01:07:23;;;;;;;;;;;;;;;-144.99;100.00;52639.69;5069323;28;19924;-58
2022/02/01 01:09:50;;;;;;;;;;;;;;;-144.99;100.00;52598.94;5068518;28;19936;-59
2022/02/01 01:12:18;;;;;;;;;;;;;;;-144.99;100.00;52676.38;5068943;28;20028;-59
2022/02/01 01:15:08;;;;;;;;;;;;;;;-144.99;100.00;52590.78;5068993;28;19931;-59
2022/02/01 01:18:04;;;;;;;;;;;;;;;-144.99;100.00;52600.97;5059044;28;19924;-60
2022/02/01 01:45:30;;;;;;;;;;;;;;;-144.99;100.00;52611.16;5054598;28;19959;-59
2022/02/01 01:53:26;;;;;;;;;;;;;;;-144.99;100.00;52656.00;5072607;28;20297;-59
2022/02/01 01:55:53;;;;;;;;;;;;;;;-144.99;100.00;52588.75;5072331;28;19931;-59
2022/02/01 01:58:21;;;;;;;;;;;;;;;-144.99;100.00;52619.31;5073225;28;20114;-58
2022/02/01 02:01:05;;;;;;;;;;;;;;;-144.99;100.00;52594.84;5072931;28;19993;-59
2022/02/01 02:03:32;;;;;;;;;;;;;;;-144.99;100.00;52615.25;5072509;28;20346;-60
2022/02/01 02:05:59;;;;;;;;;;;;;;;-144.99;100.00;52607.09;5073024;28;20380;-59
2022/02/01 02:08:26;;;;;;;;;;;;;;;-144.99;100.00;52584.66;5072616;28;19940;-58
2022/02/01 02:10:58;;;;;;;;;;;;;;;-144.99;100.00;52603.00;5072916;28;20385;-59
2022/02/01 02:16:09;;;;;;;;;;;;;;;-144.99;100.00;52615.25;5072797;28;19994;-59
2022/02/01 02:18:36;;;;;;;;;;;;;;;-144.99;100.00;52582.63;5072188;28;19931;-59
2022/02/01 02:21:08;;;;;;;;;;;;;;;-144.99;100.00;52598.94;5071463;28;20373;-59
2022/02/01 02:23:35;;;;;;;;;;;;;;;-144.99;100.00;52631.53;5071648;28;20307;-59
2022/02/01 02:26:07;;;;;;;;;;;;;;;-144.99;100.00;52619.31;5072081;28;20019;-59
2022/02/01 02:28:34;;;;;;;;;;;;;;;-144.99;100.00;52623.38;5072293;28;20398;-60
2022/02/01 02:31:02;;;;;;;;;;;;;;;-144.99;100.00;52619.31;5071498;28;20384;-57
2022/02/01 02:33:28;;;;;;;;;;;;;;;-144.99;100.00;52619.31;5071382;28;20022;-59
2022/02/01 02:35:58;;;;;;;;;;;;;;;-144.99;100.00;52627.47;5071434;28;20364;-59
2022/02/01 02:38:37;;;;;;;;;;;;;;;-144.99;100.00;52590.78;5071678;28;19951;-60
2022/02/01 02:41:22;;;;;;;;;;;;;;;-144.99;100.00;52576.50;5071321;28;19925;-59
2022/02/01 02:46:33;;;;;;;;;;;;;;;-144.99;100.00;52613.19;5059690;28;19931;-60
2022/02/01 02:49:00;;;;;;;;;;;;;;;-144.99;100.00;52574.47;5071258;28;20381;-59
2022/02/01 02:51:27;;;;;;;;;;;;;;;-144.99;100.00;52611.16;5070846;28;19928;-60
2022/02/01 02:53:57;;;;;;;;;;;;;;;-144.99;100.00;52617.28;5071126;28;19931;-60
2022/02/01 02:56:24;;;;;;;;;;;;;;;-144.99;100.00;52615.25;5071320;28;19962;-60
2022/02/01 02:58:50;;;;;;;;;;;;;;;-144.99;100.00;52656.00;5070474;28;20324;-59
2022/02/01 03:01:17;;;;;;;;;;;;;;;-144.99;100.00;52627.47;5071055;28;19924;-59
2022/02/01 03:03:43;;;;;;;;;;;;;;;-144.99;98.80;52611.16;5070569;28;19932;-58
2022/02/01 03:06:10;;;;;;;;;;;;;;;-144.99;98.48;52590.78;5070959;28;20253;-59
2022/02/01 03:08:36;;;;;;;;;;;;;;;-144.99;97.81;52647.84;5070743;28;19932;-59
2022/02/01 03:11:10;;;;;;;;;;;;;;;-144.99;97.03;52586.69;5070667;28;20312;-59
2022/02/01 03:13:37;;;;;;;;;;;;;;;-144.99;96.63;52643.78;5070466;28;19929;-59
2022/02/01 03:16:09;;;;;;;;;;;;;;;-144.99;95.98;52643.78;5070518;28;19950;-59
2022/02/01 03:21:19;;;;;;;;;;;;;;;-144.99;95.15;52598.94;5070310;28;20458;-58
2022/02/01 03:23:46;;;;;;;;;;;;;;;-144.99;94.73;52637.66;5070232;28;20298;-59
2022/02/01 03:26:14;;;;;;;;;;;;;;;-144.99;94.58;52627.47;5070794;28;19925;-59
2022/02/01 03:28:40;;;;;;;;;;;;;;;-144.99;94.49;52609.13;5070441;28;19931;-59
2022/02/01 03:31:06;;;;;;;;;;;;;;;-144.99;95.25;52598.94;5070689;28;19924;-60
2022/02/01 03:33:33;;;;;;;;;;;;;;;-144.99;94.85;52611.16;5070252;28;19936;-59
2022/02/01 03:35:59;;;;;;;;;;;;;;;-144.99;95.80;52615.25;5070526;28;19931;-58
2022/02/01 03:38:26;;;;;;;;;;;;;;;-144.99;96.35;52578.53;5070711;28;20429;-59
2022/02/01 03:40:52;;;;;;;;;;;;;;;-144.99;96.56;52631.53;5070520;28;19932;-59
2022/02/01 03:43:20;;;;;;;;;;;;;;;-144.99;96.71;52623.38;5069854;28;19931;-60
2022/02/01 03:45:48;;;;;;;;;;;;;;;-144.99;97.90;52619.31;5070075;28;19974;-60
2022/02/01 03:48:14;;;;;;;;;;;;;;;-144.99;97.87;52598.94;5068633;28;20319;-60
2022/02/01 03:50:41;;;;;;;;;;;;;;;-144.99;98.23;52637.66;5069870;28;19928;-61
2022/02/01 03:53:09;;;;;;;;;;;;;;;-144.99;98.56;52603.00;5070680;28;19931;-60
2022/02/01 03:55:35;;;;;;;;;;;;;;;-144.99;98.19;52623.38;5070756;28;19928;-59
2022/02/01 03:58:02;;;;;;;;;;;;;;;-144.99;98.26;52578.53;5071403;28;19924;-60
2022/02/01 04:00:30;;;;;;;;;;;;;;;-144.99;98.05;52619.31;5070118;28;19924;-60
2022/02/01 04:02:58;;;;;;;;;;;;;;;-144.99;98.11;52582.63;5069924;28;20400;-59
2022/02/01 04:05:24;;;;;;;;;;;;;;;-144.99;98.35;52617.28;5069541;28;19925;-60
2022/02/01 04:07:51;;;;;;;;;;;;;;;-144.99;97.89;52611.16;5069579;28;19925;-59
2022/02/01 04:10:18;;;;;;;;;;;;;;;-144.99;97.79;52574.47;5069875;28;20019;-61
2022/02/01 04:12:45;;;;;;;;;;;;;;;-144.99;98.11;52582.63;5070135;28;19932;-59
2022/02/01 04:15:11;;;;;;;;;;;;;;;-144.99;97.90;52617.28;5069396;28;19939;-59
2022/02/01 04:17:39;;;;;;;;;;;;;;;-144.99;98.08;52580.59;5070023;28;19930;-59
2022/02/01 04:20:06;;;;;;;;;;;;;;;-144.99;98.56;52603.00;5069556;28;20175;-59
2022/02/01 04:22:33;;;;;;;;;;;;;;;-144.99;98.94;52574.47;5069816;28;19924;-59
2022/02/01 04:24:59;;;;;;;;;;;;;;;-144.99;99.01;52631.53;5069492;28;20385;-59
2022/02/01 04:27:30;;;;;;;;;;;;;;;-144.99;99.36;52625.44;5070020;28;19929;-59
2022/02/01 04:30:05;;;;;;;;;;;;;;;-144.99;98.42;52629.50;5069299;28;19933;-59
2022/02/01 04:32:32;;;;;;;;;;;;;;;-144.99;99.53;52619.31;5069938;28;19925;-59
2022/02/01 04:35:00;;;;;;;;;;;;;;;-144.99;100.00;52607.09;5068578;28;20399;-59
2022/02/01 04:37:26;;;;;;;;;;;;;;;-144.99;100.00;52598.94;5069840;28;19932;-59
2022/02/01 04:39:53;;;;;;;;;;;;;;;-144.99;100.00;52562.25;5067776;28;19928;-60
2022/02/01 04:42:19;;;;;;;;;;;;;;;-144.99;100.00;52600.97;5070896;28;19929;-59
2022/02/01 04:44:45;;;;;;;;;;;;;;;-144.99;100.00;52619.31;5070758;28;19924;-57
2022/02/01 04:47:12;;;;;;;;;;;;;;;-144.99;100.00;52615.25;5070999;28;20036;-58
2022/02/01 04:49:39;;;;;;;;;;;;;;;-144.99;100.00;52594.84;5070970;28;19970;-59
2022/02/01 04:52:07;;;;;;;;;;;;;;;-144.99;100.00;52611.16;5070916;28;20545;-58
2022/02/01 04:54:33;;;;;;;;;;;;;;;-144.99;100.00;52580.59;5070674;28;19931;-58
2022/02/01 04:57:00;;;;;;;;;;;;;;;-144.99;100.00;52600.97;5070415;28;19924;-58
2022/02/01 04:59:26;;;;;;;;;;;;;;;-144.99;100.00;52623.38;5069365;28;19928;-59
2022/02/01 05:01:52;;;;;;;;;;;;;;;-144.99;100.00;52617.28;5069084;28;19924;-59
2022/02/01 05:04:20;;;;;;;;;;;;;;;-144.99;100.00;52562.25;5069438;28;19924;-59
2022/02/01 05:06:48;;;;;;;;;;;;;;;-144.99;100.00;52635.63;5068780;28;20486;-58
2022/02/01 05:09:16;;;;;;;;;;;;;;;-144.99;100.00;52578.53;5066388;28;19924;-59
2022/02/01 05:11:42;;;;;;;;;;;;;;;-144.99;100.00;52619.31;5069113;28;20015;-59
2022/02/01 05:14:14;;;;;;;;;;;;;;;-144.99;100.00;52607.09;5061454;28;19947;-59
2022/02/01 05:16:46;;;;;;;;;;;;;;;-144.99;100.00;52603.00;5069186;28;20302;-59
2022/02/01 05:19:22;;;;;;;;;;;;;;;-144.99;100.00;52598.94;5069780;28;19932;-59
2022/02/01 05:21:49;;;;;;;;;;;;;;;-144.99;100.00;52619.31;5071744;28;19931;-59
2022/02/01 05:24:25;;;;;;;;;;;;;;;-144.99;100.00;52627.47;5072975;28;19925;-59
2022/02/01 05:26:53;;;;;;;;;;;;;;;-144.99;100.00;52615.25;5073344;28;20044;-60
2022/02/01 05:29:29;;;;;;;;;;;;;;;-144.99;100.00;52603.00;5073243;28;19925;-60
2022/02/01 05:31:58;;;;;;;;;;;;;;;-144.99;100.00;52615.25;5073090;28;20021;-58
2022/02/01 05:34:25;;;;;;;;;;;;;;;-144.99;100.00;52607.09;5072534;28;19925;-59
2022/02/01 05:36:54;;;;;;;;;;;;;;;-144.99;100.00;52603.00;5072542;28;19929;-58
2022/02/01 05:39:23;;;;;;;;;;;;;;;-144.99;100.00;52639.69;5072807;28;20297;-58
2022/02/01 05:41:51;;;;;;;;;;;;;;;-144.99;100.00;52570.38;5072813;28;19932;-58
2022/02/01 05:44:18;;;;;;;;;;;;;;;-144.99;100.00;52598.94;5072270;28;19951;-58
2022/02/01 05:46:45;;;;;;;;;;;;;;;-144.99;100.00;52611.16;5072330;28;20011;-59
2022/02/01 05:49:11;;;;;;;;;;;;;;;-144.99;100.00;52605.03;5072023;28;19924;-59
2022/02/01 05:51:38;;;;;;;;;;;;;;;-144.99;100.00;52619.31;5072213;28;19928;-58
2022/02/01 05:54:07;;;;;;;;;;;;;;;-144.99;100.00;52641.72;5072518;28;19931;-59
2022/02/01 05:56:35;;;;;;;;;;;;;;;-144.99;100.00;52623.38;5072899;28;19924;-59
2022/02/01 05:59:01;;;;;;;;;;;;;;;-144.99;100.00;52643.78;5072582;28;19968;-57
2022/02/01 06:01:28;;;;;;;;;;;;;;;-144.99;100.00;52590.78;5072617;28;19934;-59
2022/02/01 06:03:54;;;;;;;;;;;;;;;-144.99;100.00;52598.94;5071867;28;20027;-58
2022/02/01 06:06:21;;;;;;;;;;;;;;;-144.99;100.00;52603.00;5071635;28;19924;-57
2022/02/01 06:08:49;;;;;;;;;;;;;;;-144.99;100.00;52590.78;5072052;28;19928;-58
2022/02/01 06:11:15;;;;;;;;;;;;;;;-144.99;100.00;52598.94;5072024;28;20011;-59
2022/02/01 06:13:48;;;;;;;;;;;;;;;-144.99;100.00;52594.84;5071759;28;19924;-58
2022/02/01 06:16:17;;;;;;;;;;;;;;;-144.99;100.00;52594.84;5071321;28;19930;-59
2022/02/01 06:18:43;;;;;;;;;;;;;;;-144.99;100.00;52629.50;5072077;28;19932;-59
2022/02/01 06:21:09;;;;;;;;;;;;;;;-144.99;100.00;52623.38;5071354;28;19954;-60
2022/02/01 06:23:36;;;;;;;;;;;;;;;-144.99;100.00;52590.78;5071420;28;19932;-59
2022/02/01 06:26:02;;;;;;;;;;;;;;;-144.99;100.00;52623.38;5072575;28;19928;-59
2022/02/01 06:28:29;;;;;;;;;;;;;;;-144.99;100.00;52594.84;5072121;28;19947;-60
2022/02/01 06:30:57;;;;;;;;;;;;;;;-144.99;100.00;52598.94;5071723;28;19934;-59
2022/02/01 06:33:24;;;;;;;;;;;;;;;-144.99;100.00;52615.25;5071721;28;19928;-59
2022/02/01 06:35:50;;;;;;;;;;;;;;;-144.99;100.00;52611.16;5071333;28;19929;-59
2022/02/01 06:38:17;;;;;;;;;;;;;;;-144.99;100.00;52623.38;5066082;28;19924;-60
2022/02/01 06:40:44;;;;;;;;;;;;;;;-144.99;100.00;52633.59;5071224;28;20403;-59
2022/02/01 06:43:11;;;;;;;;;;;;;;;-144.99;100.00;52611.16;5071218;28;19935;-58
2022/02/01 06:45:37;;;;;;;;;;;;;;;-144.99;100.00;52619.31;5071069;28;20018;-59
2022/02/01 06:48:10;;;;;;;;;;;;;;;-144.99;100.00;52615.25;5071382;28;20422;-59
2022/02/01 06:50:37;;;;;;;;;;;;;;;-144.99;100.00;52623.38;5070854;28;19924;-59
2022/02/01 06:53:04;;;;;;;;;;;;;;;-144.99;100.00;52619.31;5071547;28;19968;-59
2022/02/01 06:55:43;;;;;;;;;;;;;;;-144.99;100.00;52639.69;5070645;28;19939;-59
2022/02/01 06:58:10;;;;;;;;;;;;;;;-144.99;100.00;52615.25;5071647;28;19924;-60
2022/02/01 07:00:36;;;;;;;;;;;;;;;-144.99;100.00;52639.69;5070708;28;20304;-59
2022/02/01 07:03:04;;;;;;;;;;;;;;;-144.99;100.00;52600.97;5071910;28;20276;-60
2022/02/01 07:05:31;;;;;;;;;;;;;;;-144.99;100.00;52613.19;5070434;28;19940;-58
2022/02/01 07:07:58;;;;;;;;;;;;;;;-144.99;100.00;52639.69;5070699;28;19929;-58
2022/02/01 07:10:24;;;;;;;;;;;;;;;-144.99;100.00;52631.53;5070740;28;19924;-58
2022/02/01 07:12:51;;;;;;;;;;;;;;;-144.99;100.00;52607.09;5070384;28;20416;-58
2022/02/01 07:15:17;;;;;;;;;;;;;;;-144.99;100.00;52590.78;5070503;28;19932;-58
2022/02/01 07:17:44;;;;;;;;;;;;;;;-144.99;100.00;52615.25;5071110;28;19924;-60
2022/02/01 07:20:11;;;;;;;;;;;;;;;-144.99;100.00;52631.53;5070568;28;20002;-59
2022/02/01 07:22:42;;;;;;;;;;;;;;;-144.99;100.00;52580.59;5070832;28;19939;-58
2022/02/01 07:25:14;;;;;;;;;;;;;;;-144.99;100.00;52613.19;5070767;28;19962;-59
2022/02/01 07:27:42;;;;;;;;;;;;;;;-144.99;100.00;52603.00;5070962;28;19924;-61
2022/02/01 07:30:11;;;;;;;;;;;;;;;-144.99;100.00;52623.38;5070656;28;20048;-59
2022/02/01 07:32:37;;;;;;;;;;;;;;;-144.99;100.00;52611.16;5070305;28;19959;-59
2022/02/01 07:35:03;;;;;;;;;;;;;;;-144.99;100.00;52603.00;5070432;28;19955;-59
2022/02/01 07:37:30;;;;;;;;;;;;;;;-144.99;100.00;52570.38;5070944;28;19963;-60
2022/02/01 07:39:58;;;;;;;;;;;;;;;-144.99;100.00;52600.97;5071222;28;20262;-59
2022/02/01 07:42:24;;;;;;;;;;;;;;;-144.99;100.00;52598.94;5070788;28;19986;-59
2022/02/01 07:44:50;;;;;;;;;;;;;;;-144.99;100.00;52627.47;5069505;28;19958;-58
2022/02/01 07:47:21;;;;;;;;;;;;;;;-144.99;100.00;52603.00;5070999;28;20038;-59
2022/02/01 07:49:47;;;;;;;;;;;;;;;-144.99;100.00;52586.69;5070179;28;19964;-58
2022/02/01 07:52:14;;;;;;;;;;;;;;;-144.99;100.00;52623.38;5070624;28;20368;-59
2022/02/01 07:54:40;;;;;;;;;;;;;;;-144.99;100.00;52598.94;5070589;28;19931;-60
2022/02/01 07:57:08;;;;;;;;;;;;;;;-144.99;100.00;52674.34;5070804;28;20242;-60
2022/02/01 07:59:34;;;;;;;;;;;;;;;-144.99;100.00;52619.31;5069986;28;20463;-59
2022/02/01 08:02:01;;;;;;;;;;;;;;;-144.99;100.00;52635.63;5070037;28;20438;-59
2022/02/01 08:04:32;;;;;;;;;;;;;;;-144.99;100.00;52631.53;5070168;28;20031;-58
2022/02/01 08:06:58;;;;;;;;;;;;;;;-144.99;100.00;52615.25;5069797;28;20373;-59
2022/02/01 08:09:31;;;;;;;;;;;;;;;-144.99;100.00;52615.25;5070548;28;20297;-59
2022/02/01 08:11:58;;;;;;;;;;;;;;;-144.99;100.00;52603.00;5070451;28;19942;-59
2022/02/01 08:17:12;;;;;;;;;;;;;;;-144.99;100.00;52623.38;5070464;28;19966;-58
2022/02/01 08:19:55;;;;;;;;;;;;;;;-144.99;100.00;52611.16;5070044;28;19925;-59
2022/02/01 08:22:33;;;;;;;;;;;;;;;-144.99;100.00;52615.25;5069938;28;19957;-59
2022/02/01 08:24:59;;;;;;;;;;;;;;;-144.99;100.00;52592.81;5070029;28;20025;-59
2022/02/01 08:27:25;;;;;;;;;;;;;;;-144.99;100.00;52598.94;5070050;28;19924;-60
2022/02/01 08:29:55;;;;;;;;;;;;;;;-144.99;100.00;52590.78;5069769;28;20373;-59
2022/02/01 08:32:21;;;;;;;;;;;;;;;-144.99;100.00;52590.78;5070815;28;19925;-60
2022/02/01 08:34:48;;;;;;;;;;;;;;;-144.99;100.00;52586.69;5071754;28;20355;-59
2022/02/01 08:37:14;;;;;;;;;;;;;;;-144.99;100.00;52625.44;5066660;28;19924;-58
2022/02/01 08:39:40;;;;;;;;;;;;;;;-144.99;100.00;52603.00;5072044;28;19929;-61
2022/02/01 08:42:07;;;;;;;;;;;;;;;-144.99;100.00;52594.84;5072432;28;19924;-60
2022/02/01 08:44:35;;;;;;;;;;;;;;;-144.99;100.00;52605.03;5071706;28;19925;-58
2022/02/01 08:47:04;;;;;;;;;;;;;;;-144.99;100.00;52613.19;5071755;28;19963;-59
2022/02/01 08:49:30;;;;;;;;;;;;;;;-144.99;100.00;52611.16;5071821;28;19936;-59
2022/02/01 08:52:00;;;;;;;;;;;;;;;-144.99;100.00;52603.00;5071030;28;20234;-58
2022/02/01 08:54:29;;;;;;;;;;;;;;;-144.99;100.00;52582.63;5070874;28;19982;-59
2022/02/01 08:59:39;;;;;;;;;;;;;;;-144.99;100.00;52603.00;5074671;28;20324;-60
2022/02/01 09:02:09;;;;;;;;;;;;;;;-144.99;100.00;52603.00;5073456;28;19925;-59
2022/02/01 09:04:36;;;;;;;;;;;;;;;-144.99;100.00;52615.25;5073008;28;19960;-58
2022/02/01 09:07:03;;;;;;;;;;;;;;;-144.99;100.00;52594.84;5073223;28;19924;-59
2022/02/01 09:09:30;;;;;;;;;;;;;;;-144.99;100.00;52598.94;5073347;28;20344;-59
2022/02/01 09:11:57;;;;;;;;;;;;;;;-144.99;100.00;52639.69;5072868;28;19925;-59
2022/02/01 09:14:24;;;;;;;;;;;;;;;-144.99;100.00;52582.63;5073003;28;19924;-59
2022/02/01 09:16:51;;;;;;;;;;;;;;;-144.99;100.00;52554.09;5073170;28;19940;-60
2022/02/01 09:19:23;;;;;;;;;;;;;;;-144.99;100.00;52590.78;5073659;28;19929;-59
2022/02/01 09:21:50;;;;;;;;;;;;;;;-144.99;100.00;52586.69;5072636;28;20481;-59
2022/02/01 09:24:16;;;;;;;;;;;;;;;-144.99;100.00;52611.16;5073080;28;19929;-59
2022/02/01 09:26:43;;;;;;;;;;;;;;;-144.99;100.00;52605.03;5073208;28;20289;-58
2022/02/01 09:29:10;;;;;;;;;;;;;;;-144.99;100.00;52598.94;5075081;28;19925;-59
2022/02/01 09:31:36;;;;;;;;;;;;;;;-144.99;100.00;52592.81;5072857;28;19925;-59
2022/02/01 09:34:04;;;;;;;;;;;;;;;-144.99;100.00;52615.25;5072506;28;20412;-59
2022/02/01 09:36:31;;;;;;;;;;;;;;;-144.99;100.00;52566.31;5072586;28;19928;-59
2022/02/01 09:38:58;;;;;;;;;;;;;;;-144.99;100.00;52594.84;5072554;28;19932;-59
2022/02/01 09:41:25;;;;;;;;;;;;;;;-144.99;100.00;52611.16;5072589;28;19929;-59
2022/02/01 09:43:52;;;;;;;;;;;;;;;-144.99;100.00;52598.94;5072793;28;20027;-59
2022/02/01 09:46:18;;;;;;;;;;;;;;;-144.99;100.00;52600.97;5072450;28;19952;-58
2022/02/01 09:48:45;;;;;;;;;;;;;;;-144.99;100.00;52574.47;5072408;28;20293;-58
2022/02/01 09:51:11;;;;;;;;;;;;;;;-144.99;100.00;52611.16;5065944;28;19931;-59
2022/02/01 09:53:39;;;;;;;;;;;;;;;-144.99;100.00;52607.09;5065522;28;20131;-59
2022/02/01 09:56:05;;;;;;;;;;;;;;;-144.99;100.00;52623.38;5072975;28;19925;-59
2022/02/01 09:58:33;;;;;;;;;;;;;;;-144.99;100.00;52572.44;5072688;28;19925;-59
2022/02/01 10:01:01;;;;;;;;;;;;;;;-144.99;100.00;52586.69;5072594;28;19928;-59
2022/02/01 10:03:28;;;;;;;;;;;;;;;-144.99;100.00;52594.84;5072031;28;20184;-58
2022/02/01 10:06:05;;;;;;;;;;;;;;;-144.99;100.00;52586.69;5071781;28;20073;-59
2022/02/01 10:08:31;;;;;;;;;;;;;;;-144.99;100.00;52609.13;5072424;28;19935;-59
2022/02/01 10:10:59;;;;;;;;;;;;;;;-144.99;100.00;52656.00;5072614;28;20098;-59
2022/02/01 10:13:26;;;;;;;;;;;;;;;-144.99;100.00;52603.00;5072348;28;20023;-59
2022/02/01 10:15:59;;;;;;;;;;;;;;;-144.99;100.00;52586.69;5072008;28;19930;-59
2022/02/01 10:18:26;;;;;;;;;;;;;;;-144.99;100.00;52613.19;5071919;28;19925;-59
2022/02/01 10:20:53;;;;;;;;;;;;;;;-144.99;100.00;52611.16;5072183;28;19966;-60
2022/02/01 10:23:21;;;;;;;;;;;;;;;-144.99;100.00;52623.38;5071738;28;19924;-60
2022/02/01 10:26:02;;;;;;;;;;;;;;;-144.99;100.00;52615.25;5072210;28;19943;-59
2022/02/01 10:28:36;;;;;;;;;;;;;;;-144.99;100.00;52617.28;5072079;28;19928;-60
2022/02/01 10:31:11;;;;;;;;;;;;;;;-144.99;100.00;52627.47;5072363;28;19928;-61
2022/02/01 10:34:00;;;;;;;;;;;;;;;-144.99;100.00;52594.84;5072063;28;19967;-62
2022/02/01 10:36:34;;;;;;;;;;;;;;;-144.99;100.00;52586.69;5068124;28;19935;-61
2022/02/01 10:39:01;;;;;;;;;;;;;;;-144.99;100.00;52558.16;5070824;28;19929;-61
2022/02/01 10:41:29;;;;;;;;;;;;;;;-144.99;100.00;52574.47;5071683;28;19932;-61
2022/02/01 10:43:56;;;;;;;;;;;;;;;-144.99;100.00;52603.00;5071627;28;19928;-60
2022/02/01 10:46:23;;;;;;;;;;;;;;;-144.99;100.00;52607.09;5071051;28;19925;-62
2022/02/01 10:48:50;;;;;;;;;;;;;;;-144.99;100.00;52598.94;5071831;28;19924;-60
2022/02/01 10:51:18;;;;;;;;;;;;;;;-144.99;100.00;52611.16;5072064;28;19931;-62
2022/02/01 10:53:45;;;;;;;;;;;;;;;-144.99;100.00;52615.25;5072967;28;19925;-62
2022/02/01 10:56:13;;;;;;;;;;;;;;;-144.99;100.00;52572.44;5073515;28;19932;-62
2022/02/01 10:58:41;;;;;;;;;;;;;;;-144.99;100.00;52566.31;5073459;28;19933;-61
2022/02/01 11:01:12;;;;;;;;;;;;;;;-144.99;100.00;52613.19;5072970;28;19928;-61
2022/02/01 11:03:41;;;;;;;;;;;;;;;-144.99;100.00;52623.38;5072575;28;19925;-62
2022/02/01 11:06:07;;;;;;;;;;;;;;;-144.99;100.00;52570.38;5072006;28;20392;-61
2022/02/01 11:08:38;;;;;;;;;;;;;;;-144.99;100.00;52586.69;5074144;28;20389;-61
2022/02/01 11:11:05;;;;;;;;;;;;;;;-144.99;100.00;52578.53;5073047;28;19924;-59
2022/02/01 11:13:38;;;;;;;;;;;;;;;-144.99;100.00;52611.16;5072563;28;20320;-59
2022/02/01 11:16:07;;;;;;;;;;;;;;;-144.99;100.00;52580.59;5072940;28;19931;-61
2022/02/01 11:18:33;;;;;;;;;;;;;;;-144.99;100.00;52574.47;5072879;28;19931;-60
2022/02/01 11:21:12;;;;;;;;;;;;;;;-144.99;100.00;52562.25;5073879;28;19925;-60
2022/02/01 11:23:46;;;;;;;;;;;;;;;-144.99;100.00;52615.25;5073405;28;20082;-61
2022/02/01 11:26:25;;;;;;;;;;;;;;;-144.99;100.00;52586.69;5073780;28;19933;-61
2022/02/01 11:29:12;;;;;;;;;;;;;;;-144.99;100.00;52607.09;5073499;28;19939;-60
2022/02/01 11:31:44;;;;;;;;;;;;;;;-144.99;100.00;52556.13;5072572;28;20411;-61
2022/02/01 11:34:14;;;;;;;;;;;;;;;-144.99;100.00;52570.38;5072776;28;20320;-61
2022/02/01 11:36:41;;;;;;;;;;;;;;;-144.99;100.00;52586.69;5072216;28;19970;-60
2022/02/01 11:39:10;;;;;;;;;;;;;;;-144.99;100.00;52562.25;5072145;28;19925;-61
2022/02/01 11:41:37;;;;;;;;;;;;;;;-144.99;100.00;52558.16;5072210;28;19924;-60
2022/02/01 11:44:11;;;;;;;;;;;;;;;-144.99;100.00;52580.59;5073604;28;20103;-61
2022/02/01 11:46:37;;;;;;;;;;;;;;;-144.99;100.00;52613.19;5072827;28;20381;-60
2022/02/01 11:49:05;;;;;;;;;;;;;;;-144.99;100.00;52603.00;5071096;28;19932;-60
2022/02/01 11:51:32;;;;;;;;;;;;;;;-144.99;100.00;52568.34;5070044;28;19925;-61
2022/02/01 11:53:59;;;;;;;;;;;;;;;-144.99;100.00;52582.63;5070443;28;19934;-62
2022/02/01 11:56:31;;;;;;;;;;;;;;;-144.99;100.00;52562.25;5070853;28;20600;-61
2022/02/01 11:59:00;;;;;;;;;;;;;;;-144.99;100.00;52603.00;5070409;28;20377;-60
2022/02/01 12:01:31;;;;;;;;;;;;;;;-144.99;100.00;52572.44;5070791;28;19947;-61
2022/02/01 12:04:01;;;;;;;;;;;;;;;-144.99;100.00;52590.78;5070158;28;19933;-61
2022/02/01 12:06:45;;;;;;;;;;;;;;;-144.99;100.00;52590.78;5070520;28;19929;-61
2022/02/01 12:10:17;;;;;;;;;;;;;;;-144.99;100.00;61100.13;5062753;28;19933;-60
2022/02/01 12:13:42;;;;;;;;;;;;;;;-144.99;100.00;61100.13;5059644;28;19925;-60
2022/02/01 12:17:07;;;;;;;;;;;;;;;-144.99;100.00;61100.13;5069616;28;19924;-60
2022/02/01 12:20:35;;;;;;;;;;;;;;;-144.99;100.00;61100.13;5070134;28;19924;-60
2022/02/01 12:24:03;;;;;;;;;;;;;;;-144.99;100.00;61100.13;5070051;28;19931;-60
2022/02/01 12:27:33;;;;;;;;;;;;;;;-144.99;100.00;61100.13;5070412;28;19986;-60
2022/02/01 12:31:06;;;;;;;;;;;;;;;-144.99;100.00;61100.13;5069473;28;19924;-62
2022/02/01 12:34:31;;;;;;;;;;;;;;;-144.99;100.00;61100.13;5069694;28;19932;-61
2022/02/01 12:38:02;;;;;;;;;;;;;;;-144.99;100.00;61100.13;5069261;28;19940;-60
2022/02/01 12:41:32;;;;;;;;;;;;;;;-144.99;100.00;61100.13;5070895;28;20017;-61
2022/02/01 12:48:46;;;;;;;;;;;;;;;-144.99;100.00;61100.13;5069998;28;19934;-61
2022/02/01 12:52:17;;;;;;;;;;;;;;;-144.99;100.00;61100.13;5069509;28;20015;-61
2022/02/01 12:55:42;;;;;;;;;;;;;;;-144.99;100.00;61100.13;5069835;28;19948;-61
2022/02/01 12:59:09;;;;;;;;;;;;;;;-144.99;100.00;61100.13;5070068;28;20067;-60
2022/02/01 13:02:34;;;;;;;;;;;;;;;-144.99;100.00;61100.13;5070479;28;19971;-60
2022/02/01 13:06:01;;;;;;;;;;;;;;;-144.99;100.00;61100.13;5072352;28;20396;-61
2022/02/01 13:14:12;;;;;;;;;;;;;;;-144.99;100.00;61100.13;5072737;28;19990;-62
2022/02/01 13:17:38;;;;;;;;;;;;;;;-144.99;100.00;61100.13;5068754;28;19931;-61
2022/02/01 13:21:04;;;;;;;;;;;;;;;-144.99;100.00;61100.13;5069117;28;20426;-59
2022/02/01 13:24:31;;;;;;;;;;;;;;;-144.99;100.00;61100.13;5069249;28;19925;-60
2022/02/01 13:27:56;;;;;;;;;;;;;;;-144.99;100.00;61100.13;5069571;28;19931;-59
2022/02/01 13:31:26;;;;;;;;;;;;;;;-144.99;100.00;61100.13;5069201;28;19983;-60
2022/02/01 13:34:59;;;;;;;;;;;;;;;-144.99;100.00;61100.13;5069168;28;19925;-59
2022/02/01 13:38:25;;;;;;;;;;;;;;;-144.99;100.00;61100.13;5069747;28;19925;-59
2022/02/01 13:41:55;;;;;;;;;;;;;;;-144.99;100.00;61100.13;5069212;28;19924;-59
2022/02/01 13:45:20;;;;;;;;;;;;;;;-144.99;100.00;61100.13;5072691;28;19940;-60
2022/02/01 13:48:45;;;;;;;;;;;;;;;-144.99;100.00;61100.13;5070330;28;20011;-60
2022/02/01 13:52:14;;;;;;;;;;;;;;;-144.99;100.00;61100.13;5072483;28;19978;-59
2022/02/01 13:55:41;;;;;;;;;;;;;;;-144.99;100.00;61100.13;5072729;28;20377;-59
2022/02/01 13:59:09;;;;;;;;;;;;;;;-144.99;100.00;61100.13;5072953;28;20298;-59
2022/02/01 14:02:38;;;;;;;;;;;;;;;-144.99;100.00;61100.13;5071984;28;19931;-60
2022/02/01 14:06:12;;;;;;;;;;;;;;;-144.99;100.00;61100.13;5072060;28;19947;-60
2022/02/01 14:09:54;;;;;;;;;;;;;;;-144.99;100.00;61100.13;5072818;28;19982;-60